Time;durP1;ratioP1;P1;durP2;ratioP2;P2;SDS_P1;SDS_P2;PMS_P1;PMS_P2;Temp;Humidity;BMP_temperature;BMP_pressure;BME280_temperature;BME280_humidity;BME280_pressure;Samples;Min_cycle;Max_cycle;Signal;HPM_P1;HPM_P2
2022/08/25 00:02:15;;;;;;;;;;;;;;;;;;5047101;28;20473;-45
2022/08/25 00:04:41;;;;;;;;;;;;;;;;;;5045778;28;19967;-46
2022/08/25 00:07:08;;;;;;;;;;;;;;;;;;5048095;28;20445;-46
2022/08/25 00:09:34;;;;;;;;;;;;;;;;;;5047123;28;19916;-46
2022/08/25 00:12:00;;;;;;;;;;;;;;;;;;5046946;28;19917;-46
2022/08/25 00:14:25;;;;;;;;;;;;;;;;;;5047105;28;19920;-44
2022/08/25 00:16:52;;;;;;;;;;;;;;;;;;5046861;28;19916;-45
2022/08/25 00:19:18;;;;;;;;;;;;;;;;;;5047257;28;19909;-45
2022/08/25 00:21:43;;;;;;;;;;;;;;;;;;5046697;28;19912;-45
2022/08/25 00:24:09;;;;;;;;;;;;;;;;;;5047779;28;19920;-46
2022/08/25 00:26:35;;;;;;;;;;;;;;;;;;5047726;28;20302;-48
2022/08/25 00:29:02;;;;;;;;;;;;;;;;;;5046898;28;20004;-46
2022/08/25 00:31:28;;;;;;;;;;;;;;;;;;5046817;28;19962;-45
2022/08/25 00:33:54;;;;;;;;;;;;;;;;;;5046831;28;19909;-46
2022/08/25 00:36:20;;;;;;;;;;;;;;;;;;5046844;28;20008;-45
2022/08/25 00:38:45;;;;;;;;;;;;;;;;;;5046811;28;20450;-44
2022/08/25 00:41:11;;;;;;;;;;;;;;;;;;5046687;28;19909;-48
2022/08/25 00:43:37;;;;;;;;;;;;;;;;;;5046634;28;20411;-46
2022/08/25 00:46:04;;;;;;;;;;;;;;;;;;5046357;28;19916;-46
2022/08/25 00:48:30;;;;;;;;;;;;;;;;;;5046391;28;20447;-43
2022/08/25 00:50:56;;;;;;;;;;;;;;;;;;5046562;28;19960;-46
2022/08/25 00:53:22;;;;;;;;;;;;;;;;;;5045267;28;19917;-46
2022/08/25 00:55:48;;;;;;;;;;;;;;;;;;5046019;28;19913;-44
2022/08/25 00:58:14;;;;;;;;;;;;;;;;;;5046355;28;19912;-46
2022/08/25 01:00:39;;;;;;;;;;;;;;;;;;5046658;28;19912;-45
2022/08/25 01:03:06;;;;;;;;;;;;;;;;;;5047037;28;19917;-44
2022/08/25 01:05:32;;;;;;;;;;;;;;;;;;5046072;28;19909;-45
2022/08/25 01:08:01;;;;;;;;;;;;;;;;;;5046145;28;19915;-47
2022/08/25 01:10:27;;;;;;;;;;;;;;;;;;5046021;28;20288;-47
2022/08/25 01:12:53;;;;;;;;;;;;;;;;;;5045933;28;19912;-44
2022/08/25 01:15:20;;;;;;;;;;;;;;;;;;5045665;28;19913;-44
2022/08/25 01:17:46;;;;;;;;;;;;;;;;;;5046445;28;19934;-45
2022/08/25 01:20:13;;;;;;;;;;;;;;;;;;5045946;28;20494;-45
2022/08/25 01:22:40;;;;;;;;;;;;;;;;;;5045977;28;19916;-48
2022/08/25 01:25:06;;;;;;;;;;;;;;;;;;5046313;28;19920;-48
2022/08/25 01:27:32;;;;;;;;;;;;;;;;;;5045480;28;19947;-45
2022/08/25 01:29:58;;;;;;;;;;;;;;;;;;5045595;28;19948;-45
2022/08/25 01:32:24;;;;;;;;;;;;;;;;;;5045759;28;19908;-48
2022/08/25 01:34:51;;;;;;;;;;;;;;;;;;5045748;28;20403;-46
2022/08/25 01:37:18;;;;;;;;;;;;;;;;;;5045250;28;20350;-46
2022/08/25 01:39:43;;;;;;;;;;;;;;;;;;5045515;28;19962;-48
2022/08/25 01:42:10;;;;;;;;;;;;;;;;;;5046059;28;19925;-46
2022/08/25 01:44:37;;;;;;;;;;;;;;;;;;5045449;28;19928;-48
2022/08/25 01:47:03;;;;;;;;;;;;;;;;;;5045643;28;20007;-48
2022/08/25 01:49:28;;;;;;;;;;;;;;;;;;5045189;28;20068;-45
2022/08/25 01:51:54;;;;;;;;;;;;;;;;;;5045326;28;20342;-46
2022/08/25 01:54:20;;;;;;;;;;;;;;;;;;5045029;28;19912;-45
2022/08/25 01:56:47;;;;;;;;;;;;;;;;;;5045487;28;19935;-45
2022/08/25 01:59:13;;;;;;;;;;;;;;;;;;5045260;28;19912;-48
2022/08/25 02:01:39;;;;;;;;;;;;;;;;;;5045391;28;20513;-46
2022/08/25 02:04:05;;;;;;;;;;;;;;;;;;5045596;28;19913;-47
2022/08/25 02:06:32;;;;;;;;;;;;;;;;;;5044429;28;20375;-46
2022/08/25 02:08:57;;;;;;;;;;;;;;;;;;5045141;28;19920;-46
2022/08/25 02:11:24;;;;;;;;;;;;;;;;;;5044894;28;19909;-43
2022/08/25 02:13:51;;;;;;;;;;;;;;;;;;5045154;28;19916;-44
2022/08/25 02:16:17;;;;;;;;;;;;;;;;;;5044950;28;19908;-46
2022/08/25 02:18:44;;;;;;;;;;;;;;;;;;5044862;28;19909;-48
2022/08/25 02:21:10;;;;;;;;;;;;;;;;;;5045081;28;19913;-44
2022/08/25 02:23:36;;;;;;;;;;;;;;;;;;5045400;28;20355;-46
2022/08/25 02:26:02;;;;;;;;;;;;;;;;;;5045173;28;20001;-44
2022/08/25 02:28:27;;;;;;;;;;;;;;;;;;5044814;28;20334;-45
2022/08/25 02:30:54;;;;;;;;;;;;;;;;;;5044982;28;19976;-46
2022/08/25 02:33:21;;;;;;;;;;;;;;;;;;5044550;28;19923;-45
2022/08/25 02:35:48;;;;;;;;;;;;;;;;;;5044993;28;19919;-47
2022/08/25 02:38:14;;;;;;;;;;;;;;;;;;5045105;28;19936;-48
2022/08/25 02:40:39;;;;;;;;;;;;;;;;;;5045146;28;19990;-43
2022/08/25 02:43:05;;;;;;;;;;;;;;;;;;5045297;28;19917;-46
2022/08/25 02:45:31;;;;;;;;;;;;;;;;;;5044358;28;20362;-44
2022/08/25 02:47:57;;;;;;;;;;;;;;;;;;5045076;28;20172;-46
2022/08/25 02:50:25;;;;;;;;;;;;;;;;;;5044667;28;19984;-47
2022/08/25 02:52:51;;;;;;;;;;;;;;;;;;5044825;28;19916;-47
2022/08/25 02:55:17;;;;;;;;;;;;;;;;;;5044907;28;19959;-44
2022/08/25 02:57:44;;;;;;;;;;;;;;;;;;5044181;28;19909;-44
2022/08/25 03:00:10;;;;;;;;;;;;;;;;;;5044973;28;20016;-44
2022/08/25 03:02:36;;;;;;;;;;;;;;;;;;5044832;28;20003;-46
2022/08/25 03:05:02;;;;;;;;;;;;;;;;;;5044833;28;19919;-46
2022/08/25 03:07:28;;;;;;;;;;;;;;;;;;5044509;28;19952;-44
2022/08/25 03:09:54;;;;;;;;;;;;;;;;;;5044577;28;19913;-49
2022/08/25 03:12:21;;;;;;;;;;;;;;;;;;5044290;28;19967;-48
2022/08/25 03:14:47;;;;;;;;;;;;;;;;;;5044764;28;19984;-46
2022/08/25 03:17:13;;;;;;;;;;;;;;;;;;5042891;28;19913;-45
2022/08/25 03:19:38;;;;;;;;;;;;;;;;;;5048876;28;19917;-45
2022/08/25 03:22:04;;;;;;;;;;;;;;;;;;5048152;28;19916;-45
2022/08/25 03:24:30;;;;;;;;;;;;;;;;;;5048068;28;19920;-44
2022/08/25 03:26:56;;;;;;;;;;;;;;;;;;5048296;28;19909;-47
2022/08/25 03:29:22;;;;;;;;;;;;;;;;;;5047944;28;19919;-47
2022/08/25 03:31:48;;;;;;;;;;;;;;;;;;5047918;28;19916;-44
2022/08/25 03:34:15;;;;;;;;;;;;;;;;;;5047858;28;20324;-44
2022/08/25 03:36:41;;;;;;;;;;;;;;;;;;5047942;28;20280;-46
2022/08/25 03:39:07;;;;;;;;;;;;;;;;;;5048928;28;19916;-48
2022/08/25 03:41:33;;;;;;;;;;;;;;;;;;5047337;28;19909;-44
2022/08/25 03:43:59;;;;;;;;;;;;;;;;;;5047591;28;20396;-49
2022/08/25 03:46:26;;;;;;;;;;;;;;;;;;5048217;28;19913;-45
2022/08/25 03:48:52;;;;;;;;;;;;;;;;;;5047755;28;19916;-45
2022/08/25 03:51:18;;;;;;;;;;;;;;;;;;5047557;28;19920;-46
2022/08/25 03:53:44;;;;;;;;;;;;;;;;;;5047567;28;19909;-44
2022/08/25 03:56:09;;;;;;;;;;;;;;;;;;5047673;28;19935;-44
2022/08/25 03:58:35;;;;;;;;;;;;;;;;;;5047993;28;19912;-44
2022/08/25 04:01:01;;;;;;;;;;;;;;;;;;5047509;28;19909;-45
2022/08/25 04:03:27;;;;;;;;;;;;;;;;;;5047106;28;19971;-44
2022/08/25 04:05:53;;;;;;;;;;;;;;;;;;5047457;28;20372;-44
2022/08/25 04:08:19;;;;;;;;;;;;;;;;;;5047096;28;19936;-47
2022/08/25 04:10:45;;;;;;;;;;;;;;;;;;5047179;28;20394;-45
2022/08/25 04:13:11;;;;;;;;;;;;;;;;;;5046938;28;19915;-45
2022/08/25 04:15:37;;;;;;;;;;;;;;;;;;5047731;28;20011;-46
2022/08/25 04:18:03;;;;;;;;;;;;;;;;;;5047220;28;19913;-44
2022/08/25 04:20:29;;;;;;;;;;;;;;;;;;5047010;28;19996;-45
2022/08/25 04:22:59;;;;;;;;;;;;;;;;;;5046871;28;20007;-45
2022/08/25 04:25:26;;;;;;;;;;;;;;;;;;5047193;28;19909;-45
2022/08/25 04:27:52;;;;;;;;;;;;;;;;;;5046811;28;19944;-45
2022/08/25 04:30:18;;;;;;;;;;;;;;;;;;5046490;28;19960;-48
2022/08/25 04:32:44;;;;;;;;;;;;;;;;;;5046935;28;19944;-48
2022/08/25 04:35:10;;;;;;;;;;;;;;;;;;5047391;28;20433;-44
2022/08/25 04:37:36;;;;;;;;;;;;;;;;;;5047522;28;19996;-47
2022/08/25 04:40:03;;;;;;;;;;;;;;;;;;5046658;28;20003;-45
2022/08/25 04:42:29;;;;;;;;;;;;;;;;;;5046277;28;20442;-46
2022/08/25 04:44:55;;;;;;;;;;;;;;;;;;5046368;28;20011;-44
2022/08/25 04:47:22;;;;;;;;;;;;;;;;;;5046571;28;19917;-45
2022/08/25 04:49:48;;;;;;;;;;;;;;;;;;5046715;28;19909;-47
2022/08/25 04:52:14;;;;;;;;;;;;;;;;;;5046125;28;20080;-45
2022/08/25 04:54:40;;;;;;;;;;;;;;;;;;5046297;28;20014;-44
2022/08/25 04:57:06;;;;;;;;;;;;;;;;;;5046989;28;19913;-45
2022/08/25 04:59:32;;;;;;;;;;;;;;;;;;5046486;28;20418;-47
2022/08/25 05:02:00;;;;;;;;;;;;;;;;;;5046279;28;19917;-44
2022/08/25 05:04:26;;;;;;;;;;;;;;;;;;5046144;28;19956;-44
2022/08/25 05:06:52;;;;;;;;;;;;;;;;;;5046132;28;20355;-47
2022/08/25 05:09:19;;;;;;;;;;;;;;;;;;5046043;28;19928;-44
2022/08/25 05:11:46;;;;;;;;;;;;;;;;;;5045896;28;19909;-44
2022/08/25 05:14:14;;;;;;;;;;;;;;;;;;5045894;28;19916;-47
2022/08/25 05:16:40;;;;;;;;;;;;;;;;;;5046349;28;20304;-43
2022/08/25 05:19:06;;;;;;;;;;;;;;;;;;5046721;28;19908;-44
2022/08/25 05:21:32;;;;;;;;;;;;;;;;;;5045802;28;19915;-46
2022/08/25 05:23:58;;;;;;;;;;;;;;;;;;5045880;28;19959;-47
2022/08/25 05:26:24;;;;;;;;;;;;;;;;;;5045397;28;19997;-48
2022/08/25 05:28:51;;;;;;;;;;;;;;;;;;5045856;28;19915;-48
2022/08/25 05:31:16;;;;;;;;;;;;;;;;;;5045472;28;19959;-45
2022/08/25 05:33:43;;;;;;;;;;;;;;;;;;5045438;28;19994;-44
2022/08/25 05:36:09;;;;;;;;;;;;;;;;;;5046257;28;19908;-44
2022/08/25 05:38:35;;;;;;;;;;;;;;;;;;5046608;28;19915;-43
2022/08/25 05:41:01;;;;;;;;;;;;;;;;;;5044953;28;19909;-49
2022/08/25 05:43:28;;;;;;;;;;;;;;;;;;5044983;28;19921;-45
2022/08/25 05:45:54;;;;;;;;;;;;;;;;;;5045390;28;20536;-45
2022/08/25 05:48:20;;;;;;;;;;;;;;;;;;5045969;28;20398;-46
2022/08/25 05:50:46;;;;;;;;;;;;;;;;;;5046233;28;19909;-46
2022/08/25 05:53:12;;;;;;;;;;;;;;;;;;5029225;28;19916;-44
2022/08/25 05:55:37;;;;;;;;;;;;;;;;;;5027590;28;20011;-45
2022/08/25 05:58:03;;;;;;;;;;;;;;;;;;5027314;28;19917;-45
2022/08/25 06:00:29;;;;;;;;;;;;;;;;;;5026662;28;20454;-45
2022/08/25 06:02:55;;;;;;;;;;;;;;;;;;5026408;28;19983;-45
2022/08/25 06:05:21;;;;;;;;;;;;;;;;;;5041983;28;19952;-44
2022/08/25 06:07:47;;;;;;;;;;;;;;;;;;5036950;28;19967;-47
2022/08/25 06:10:13;;;;;;;;;;;;;;;;;;5026583;28;19913;-45
2022/08/25 06:12:39;;;;;;;;;;;;;;;;;;5026947;28;19963;-46
2022/08/25 06:15:05;;;;;;;;;;;;;;;;;;5027380;28;19909;-44
2022/08/25 06:17:31;;;;;;;;;;;;;;;;;;5026324;28;20388;-44
2022/08/25 06:19:57;;;;;;;;;;;;;;;;;;5026753;28;19984;-45
2022/08/25 06:22:26;;;;;;;;;;;;;;;;;;5038302;28;20345;-45
2022/08/25 06:24:52;;;;;;;;;;;;;;;;;;5045084;28;19909;-45
2022/08/25 06:27:18;;;;;;;;;;;;;;;;;;5044917;28;19913;-44
2022/08/25 06:29:44;;;;;;;;;;;;;;;;;;5044637;28;19921;-45
2022/08/25 06:32:10;;;;;;;;;;;;;;;;;;5042067;28;20403;-44
2022/08/25 06:34:36;;;;;;;;;;;;;;;;;;5041303;28;19908;-44
2022/08/25 06:37:02;;;;;;;;;;;;;;;;;;5045655;28;19913;-48
2022/08/25 06:39:28;;;;;;;;;;;;;;;;;;5044074;28;19978;-47
2022/08/25 06:41:55;;;;;;;;;;;;;;;;;;5045799;28;19991;-45
2022/08/25 06:44:22;;;;;;;;;;;;;;;;;;5047176;28;19927;-45
2022/08/25 06:46:48;;;;;;;;;;;;;;;;;;5043168;28;19917;-45
2022/08/25 06:49:15;;;;;;;;;;;;;;;;;;5044137;28;19924;-46
2022/08/25 06:51:41;;;;;;;;;;;;;;;;;;5047500;28;19995;-46
2022/08/25 06:54:08;;;;;;;;;;;;;;;;;;5049173;28;19986;-45
2022/08/25 06:56:34;;;;;;;;;;;;;;;;;;5051158;28;19919;-45
2022/08/25 06:59:00;;;;;;;;;;;;;;;;;;5051829;28;20374;-43
2022/08/25 07:01:26;;;;;;;;;;;;;;;;;;5048746;28;19909;-46
2022/08/25 07:03:53;;;;;;;;;;;;;;;;;;5047098;28;19913;-45
2022/08/25 07:06:19;;;;;;;;;;;;;;;;;;5048034;28;19916;-44
2022/08/25 07:08:46;;;;;;;;;;;;;;;;;;5042514;28;19913;-44
2022/08/25 07:11:13;;;;;;;;;;;;;;;;;;5049036;28;19913;-44
2022/08/25 07:13:39;;;;;;;;;;;;;;;;;;5046054;28;20324;-44
2022/08/25 07:16:05;;;;;;;;;;;;;;;;;;5046380;28;20284;-44
2022/08/25 07:18:32;;;;;;;;;;;;;;;;;;5048427;28;19939;-44
2022/08/25 07:20:58;;;;;;;;;;;;;;;;;;5048435;28;19955;-44
2022/08/25 07:23:24;;;;;;;;;;;;;;;;;;5048367;28;20376;-43
2022/08/25 07:25:51;;;;;;;;;;;;;;;;;;5048726;28;19916;-43
2022/08/25 07:28:17;;;;;;;;;;;;;;;;;;5048309;28;19912;-44
2022/08/25 07:30:42;;;;;;;;;;;;;;;;;;5048463;28;20390;-43
2022/08/25 07:33:08;;;;;;;;;;;;;;;;;;5049143;28;19908;-44
2022/08/25 07:35:36;;;;;;;;;;;;;;;;;;5048036;28;20406;-44
2022/08/25 07:38:02;;;;;;;;;;;;;;;;;;5048441;28;19917;-43
2022/08/25 07:40:28;;;;;;;;;;;;;;;;;;5048135;28;19916;-45
2022/08/25 07:42:53;;;;;;;;;;;;;;;;;;5046542;28;19917;-44
2022/08/25 07:45:20;;;;;;;;;;;;;;;;;;5047817;28;19912;-43
2022/08/25 07:47:46;;;;;;;;;;;;;;;;;;5047963;28;19908;-46
2022/08/25 07:50:12;;;;;;;;;;;;;;;;;;5047682;28;20339;-45
2022/08/25 07:52:38;;;;;;;;;;;;;;;;;;5048627;28;19916;-43
2022/08/25 07:55:05;;;;;;;;;;;;;;;;;;5048140;28;19967;-45
2022/08/25 07:57:31;;;;;;;;;;;;;;;;;;5047975;28;20382;-45
2022/08/25 07:59:58;;;;;;;;;;;;;;;;;;5048128;28;19996;-43
2022/08/25 08:02:24;;;;;;;;;;;;;;;;;;5046963;28;20291;-44
2022/08/25 08:04:50;;;;;;;;;;;;;;;;;;5047593;28;19954;-44
2022/08/25 08:07:17;;;;;;;;;;;;;;;;;;5047515;28;20219;-44
2022/08/25 08:09:43;;;;;;;;;;;;;;;;;;5047665;28;19909;-43
2022/08/25 08:12:10;;;;;;;;;;;;;;;;;;5047756;28;19916;-44
2022/08/25 08:14:36;;;;;;;;;;;;;;;;;;5048229;28;19963;-43
2022/08/25 08:17:03;;;;;;;;;;;;;;;;;;5047401;28;20359;-43
2022/08/25 08:19:29;;;;;;;;;;;;;;;;;;5047217;28;20272;-45
2022/08/25 08:21:56;;;;;;;;;;;;;;;;;;5047302;28;19913;-43
2022/08/25 08:24:23;;;;;;;;;;;;;;;;;;5047195;28;19913;-44
2022/08/25 08:26:49;;;;;;;;;;;;;;;;;;5047391;28;19932;-44
2022/08/25 08:29:15;;;;;;;;;;;;;;;;;;5047197;28;19909;-44
2022/08/25 08:31:41;;;;;;;;;;;;;;;;;;5046832;28;20343;-44
2022/08/25 08:34:07;;;;;;;;;;;;;;;;;;5047833;28;19936;-45
2022/08/25 08:36:34;;;;;;;;;;;;;;;;;;5046768;28;19913;-44
2022/08/25 08:38:59;;;;;;;;;;;;;;;;;;5047474;28;19913;-47
2022/08/25 08:44:10;;;;;;;;;;;;;;;;;;5046729;28;19924;-44
2022/08/25 08:46:36;;;;;;;;;;;;;;;;;;5047734;28;19909;-45
2022/08/25 08:49:03;;;;;;;;;;;;;;;;;;5046944;28;19913;-44
2022/08/25 08:51:29;;;;;;;;;;;;;;;;;;5046415;28;19956;-44
2022/08/25 08:53:56;;;;;;;;;;;;;;;;;;5046876;28;19913;-46
2022/08/25 08:56:23;;;;;;;;;;;;;;;;;;5046485;28;19913;-44
2022/08/25 08:58:49;;;;;;;;;;;;;;;;;;5046602;28;20345;-44
2022/08/25 09:01:14;;;;;;;;;;;;;;;;;;5046146;28;19913;-44
2022/08/25 09:03:40;;;;;;;;;;;;;;;;;;5046501;28;19920;-43
2022/08/25 09:06:06;;;;;;;;;;;;;;;;;;5047203;28;19932;-43
2022/08/25 09:08:34;;;;;;;;;;;;;;;;;;5046315;28;19936;-44
2022/08/25 09:11:00;;;;;;;;;;;;;;;;;;5046478;28;19958;-45
2022/08/25 09:13:25;;;;;;;;;;;;;;;;;;5046004;28;19909;-45
2022/08/25 09:18:36;;;;;;;;;;;;;;;;;;5046912;28;19955;-44
2022/08/25 09:21:02;;;;;;;;;;;;;;;;;;5046178;28;19968;-45
2022/08/25 09:23:28;;;;;;;;;;;;;;;;;;5045850;28;20041;-44
2022/08/25 09:25:54;;;;;;;;;;;;;;;;;;5046110;28;20412;-44
2022/08/25 09:28:20;;;;;;;;;;;;;;;;;;5045953;28;19909;-45
2022/08/25 09:30:46;;;;;;;;;;;;;;;;;;5045874;28;20031;-44
2022/08/25 09:33:12;;;;;;;;;;;;;;;;;;5045328;28;19959;-45
2022/08/25 09:35:38;;;;;;;;;;;;;;;;;;5046573;28;19919;-44
2022/08/25 09:38:04;;;;;;;;;;;;;;;;;;5045847;28;19913;-44
2022/08/25 09:40:30;;;;;;;;;;;;;;;;;;5045466;28;19912;-44
2022/08/25 09:42:56;;;;;;;;;;;;;;;;;;5045598;28;19940;-44
2022/08/25 09:45:21;;;;;;;;;;;;;;;;;;5045528;28;19912;-45
2022/08/25 09:47:47;;;;;;;;;;;;;;;;;;5045814;28;19919;-44
2022/08/25 09:50:13;;;;;;;;;;;;;;;;;;5045661;28;19916;-45
2022/08/25 09:52:39;;;;;;;;;;;;;;;;;;5046125;28;19909;-45
2022/08/25 09:55:06;;;;;;;;;;;;;;;;;;5046059;28;20383;-44
2022/08/25 09:57:32;;;;;;;;;;;;;;;;;;5045207;28;19913;-46
2022/08/25 09:59:58;;;;;;;;;;;;;;;;;;5045629;28;19920;-47
2022/08/25 10:02:25;;;;;;;;;;;;;;;;;;5045104;28;19916;-46
2022/08/25 10:04:51;;;;;;;;;;;;;;;;;;5045599;28;20410;-44
2022/08/25 10:07:17;;;;;;;;;;;;;;;;;;5045131;28;20007;-45
2022/08/25 10:09:42;;;;;;;;;;;;;;;;;;5045340;28;20043;-48
2022/08/25 10:12:08;;;;;;;;;;;;;;;;;;5045842;28;19912;-44
2022/08/25 10:14:35;;;;;;;;;;;;;;;;;;5045369;28;19927;-44
2022/08/25 10:17:02;;;;;;;;;;;;;;;;;;5045171;28;20602;-46
2022/08/25 10:19:28;;;;;;;;;;;;;;;;;;5045007;28;19952;-44
2022/08/25 10:21:54;;;;;;;;;;;;;;;;;;5045119;28;20339;-45
2022/08/25 10:24:20;;;;;;;;;;;;;;;;;;5045025;28;19917;-47
2022/08/25 10:26:46;;;;;;;;;;;;;;;;;;5048927;28;19912;-44
2022/08/25 10:29:12;;;;;;;;;;;;;;;;;;5051834;28;19912;-46
2022/08/25 10:31:38;;;;;;;;;;;;;;;;;;5052394;28;19912;-47
2022/08/25 10:34:04;;;;;;;;;;;;;;;;;;5033803;28;19943;-43
2022/08/25 10:36:30;;;;;;;;;;;;;;;;;;5051636;28;19913;-45
2022/08/25 10:38:57;;;;;;;;;;;;;;;;;;5051505;28;19909;-44
2022/08/25 10:41:23;;;;;;;;;;;;;;;;;;5051559;28;19913;-45
2022/08/25 10:43:49;;;;;;;;;;;;;;;;;;5051462;28;19970;-45
2022/08/25 10:46:15;;;;;;;;;;;;;;;;;;5051403;28;19908;-45
2022/08/25 10:48:42;;;;;;;;;;;;;;;;;;5051750;28;20035;-44
2022/08/25 10:51:08;;;;;;;;;;;;;;;;;;5052518;28;19909;-45
2022/08/25 10:53:34;;;;;;;;;;;;;;;;;;5051001;28;19917;-44
2022/08/25 10:56:02;;;;;;;;;;;;;;;;;;5051643;28;19920;-44
2022/08/25 10:58:28;;;;;;;;;;;;;;;;;;5051260;28;19909;-44
2022/08/25 11:00:55;;;;;;;;;;;;;;;;;;5051557;28;20369;-44
2022/08/25 11:03:20;;;;;;;;;;;;;;;;;;5051214;28;20380;-44
2022/08/25 11:05:46;;;;;;;;;;;;;;;;;;5051249;28;19916;-44
2022/08/25 11:08:13;;;;;;;;;;;;;;;;;;5051183;28;19978;-45
2022/08/25 11:10:39;;;;;;;;;;;;;;;;;;5052189;28;19919;-45
2022/08/25 11:13:05;;;;;;;;;;;;;;;;;;5051480;28;19913;-43
2022/08/25 11:15:32;;;;;;;;;;;;;;;;;;5051114;28;20194;-44
2022/08/25 11:17:58;;;;;;;;;;;;;;;;;;5051802;28;19920;-45
2022/08/25 11:20:26;;;;;;;;;;;;;;;;;;5051557;28;19917;-44
2022/08/25 11:22:52;;;;;;;;;;;;;;;;;;5051175;28;19917;-44
2022/08/25 11:25:19;;;;;;;;;;;;;;;;;;5051303;28;20302;-44
2022/08/25 11:27:45;;;;;;;;;;;;;;;;;;5051555;28;19955;-44
2022/08/25 11:30:11;;;;;;;;;;;;;;;;;;5050953;28;19940;-45
2022/08/25 11:32:37;;;;;;;;;;;;;;;;;;5051633;28;19940;-44
2022/08/25 11:35:03;;;;;;;;;;;;;;;;;;5051147;28;20475;-43
2022/08/25 11:37:30;;;;;;;;;;;;;;;;;;5048284;28;20581;-44
2022/08/25 11:39:56;;;;;;;;;;;;;;;;;;5047227;28;19917;-45
2022/08/25 11:42:22;;;;;;;;;;;;;;;;;;5045575;28;19919;-44
2022/08/25 11:44:48;;;;;;;;;;;;;;;;;;5047755;28;20361;-45
2022/08/25 11:47:14;;;;;;;;;;;;;;;;;;5047580;28;20432;-45
2022/08/25 11:49:40;;;;;;;;;;;;;;;;;;5047812;28;19961;-44
2022/08/25 11:52:07;;;;;;;;;;;;;;;;;;5047805;28;19912;-43
2022/08/25 11:54:32;;;;;;;;;;;;;;;;;;5048114;28;19919;-46
2022/08/25 11:56:58;;;;;;;;;;;;;;;;;;5047927;28;19905;-44
2022/08/25 11:59:25;;;;;;;;;;;;;;;;;;5047145;28;20294;-45
2022/08/25 12:01:51;;;;;;;;;;;;;;;;;;5047825;28;19909;-44
2022/08/25 12:04:17;;;;;;;;;;;;;;;;;;5047197;28;19909;-44
2022/08/25 12:06:43;;;;;;;;;;;;;;;;;;5047711;28;19912;-45
2022/08/25 12:09:11;;;;;;;;;;;;;;;;;;5047690;28;20384;-44
2022/08/25 12:11:37;;;;;;;;;;;;;;;;;;5047603;28;20299;-45
2022/08/25 12:14:03;;;;;;;;;;;;;;;;;;5047815;28;19916;-44
2022/08/25 12:16:30;;;;;;;;;;;;;;;;;;5047267;28;19913;-45
2022/08/25 12:18:56;;;;;;;;;;;;;;;;;;5047110;28;20007;-44
2022/08/25 12:21:22;;;;;;;;;;;;;;;;;;5047328;28;19963;-44
2022/08/25 12:23:48;;;;;;;;;;;;;;;;;;5047302;28;19939;-45
2022/08/25 12:26:14;;;;;;;;;;;;;;;;;;5046824;28;19923;-45
2022/08/25 12:28:40;;;;;;;;;;;;;;;;;;5046749;28;19909;-44
2022/08/25 12:31:06;;;;;;;;;;;;;;;;;;5047110;28;19999;-45
2022/08/25 12:33:32;;;;;;;;;;;;;;;;;;5047128;28;20003;-45
2022/08/25 12:35:59;;;;;;;;;;;;;;;;;;5047136;28;19995;-44
2022/08/25 12:38:24;;;;;;;;;;;;;;;;;;5046662;28;20478;-44
2022/08/25 12:40:51;;;;;;;;;;;;;;;;;;5047088;28;19915;-44
2022/08/25 12:43:17;;;;;;;;;;;;;;;;;;5046136;28;19920;-45
2022/08/25 12:45:43;;;;;;;;;;;;;;;;;;5046987;28;19919;-45
2022/08/25 12:48:09;;;;;;;;;;;;;;;;;;5046750;28;19932;-45
2022/08/25 12:50:35;;;;;;;;;;;;;;;;;;5047027;28;20007;-44
2022/08/25 12:53:01;;;;;;;;;;;;;;;;;;5047311;28;20321;-45
2022/08/25 12:55:27;;;;;;;;;;;;;;;;;;5046526;28;20011;-46
2022/08/25 12:57:57;;;;;;;;;;;;;;;;;;5046637;28;19913;-45
2022/08/25 13:00:23;;;;;;;;;;;;;;;;;;5045903;28;19955;-44
2022/08/25 13:02:49;;;;;;;;;;;;;;;;;;5046243;28;20380;-44
2022/08/25 13:05:15;;;;;;;;;;;;;;;;;;5046247;28;20299;-44
2022/08/25 13:07:41;;;;;;;;;;;;;;;;;;5046585;28;19904;-46
2022/08/25 13:10:07;;;;;;;;;;;;;;;;;;5046292;28;19985;-45
2022/08/25 13:12:34;;;;;;;;;;;;;;;;;;5046454;28;19954;-44
2022/08/25 13:15:00;;;;;;;;;;;;;;;;;;5046807;28;19988;-44
2022/08/25 13:17:27;;;;;;;;;;;;;;;;;;5045680;28;19921;-45
2022/08/25 13:19:53;;;;;;;;;;;;;;;;;;5046382;28;19951;-44
2022/08/25 13:22:19;;;;;;;;;;;;;;;;;;5045749;28;19913;-45
2022/08/25 13:24:45;;;;;;;;;;;;;;;;;;5045969;28;20395;-44
2022/08/25 13:27:11;;;;;;;;;;;;;;;;;;5045923;28;20004;-44
2022/08/25 13:29:38;;;;;;;;;;;;;;;;;;5045657;28;20298;-44
2022/08/25 13:32:05;;;;;;;;;;;;;;;;;;5046870;28;20025;-44
2022/08/25 13:34:31;;;;;;;;;;;;;;;;;;5044563;28;19913;-44
2022/08/25 13:39:41;;;;;;;;;;;;;;;;;;5044911;28;20050;-44
2022/08/25 13:42:12;;;;;;;0.60;0.60;;;;;;;;;;5046029;28;20499;-44
2022/08/25 13:44:39;;;;;;;0.65;0.65;;;;;;;;;;5046465;28;20063;-43
2022/08/25 13:47:12;;;;;;;0.82;0.75;;;;;;;;;;5046802;28;20082;-43
2022/08/25 13:49:39;;;;;;;0.70;0.70;;;;;;;;;;5046527;28;20032;-47
2022/08/25 13:52:06;;;;;;;0.70;0.70;;;;;;;;;;5046763;28;20037;-45
2022/08/25 13:54:32;;;;;;;0.45;0.45;;;;;;;;;;5046451;28;20021;-52
2022/08/25 13:57:16;;;;;;;0.70;0.52;;;;;;;;;;5046730;28;20033;-52
2022/08/25 13:59:44;;;;;;;0.50;0.50;;;;;;;;;;5046220;28;20029;-53
2022/08/25 14:02:11;;;;;;;0.70;0.60;;;;;;;;;;5045771;28;20132;-54
2022/08/25 14:04:40;;;;;;;0.50;0.50;;;;;;;;;;5046611;28;20021;-52
2022/08/25 14:07:21;;;;;;;0.65;0.60;;;;;;;;;;5045582;28;20472;-51
2022/08/25 14:09:50;;;;;;;0.40;0.40;;;;;;;;;;5045566;28;20059;-50
2022/08/25 14:12:34;;;;;;;0.50;0.50;;;;;;;;;;5045129;28;20484;-53
2022/08/25 14:15:03;;;;;;;0.70;0.60;;;;;;;;;;5044672;28;20025;-53
2022/08/25 14:17:29;;;;;;;0.70;0.70;;;;;;;;;;5044604;28;20416;-53
2022/08/25 14:19:56;;;;;;;0.50;0.50;;;;;;;;;;5044585;28;20028;-51
2022/08/25 14:22:23;;;;;;;0.65;0.50;;;;;;;;;;5044474;28;20033;-51
2022/08/25 14:24:51;;;;;;;0.45;0.45;;;;;;;;;;5045022;28;20075;-53
2022/08/25 14:27:17;;;;;;;0.52;0.52;;;;;;;;;;5046457;28;20025;-51
2022/08/25 14:29:44;;;;;;;0.45;0.45;;;;;;;;;;5046578;28;20021;-53
2022/08/25 14:32:10;;;;;;;0.50;0.50;;;;;;;;;;5046070;28;20029;-53
2022/08/25 14:34:38;;;;;;;0.40;0.40;;;;;;;;;;5045914;28;20025;-54
2022/08/25 14:37:12;;;;;;;0.55;0.55;;;;;;;;;;5045942;28;20044;-53
2022/08/25 14:39:38;;;;;;;0.60;0.60;;;;;;;;;;5042979;28;20149;-52
2022/08/25 14:42:04;;;;;;;0.60;0.60;;;;;;;;;;5045446;28;20552;-53
2022/08/25 14:44:31;;;;;;;0.50;0.50;;;;;;;;;;5045796;28;20033;-54
2022/08/25 14:46:58;;;;;;;1.08;0.85;;;;;;;;;;5042625;28;20025;-53
2022/08/25 14:49:28;;;;;;;0.50;0.50;;;;;;;;;;5042528;28;20025;-53
2022/08/25 14:51:55;;;;;;;0.60;0.60;;;;;;;;;;5044529;28;20040;-54
2022/08/25 14:54:24;;;;;;;0.70;0.65;;;;;;;;;;5045249;28;20025;-54
2022/08/25 14:56:51;;;;;;;0.50;0.50;;;;;;;;;;5045070;28;20086;-52
2022/08/25 14:59:17;;;;;;;0.60;0.60;;;;;;;;;;5044173;28;20668;-53
2022/08/25 15:01:43;;;;;;;1.83;0.40;;;;;;;;;;5046502;28;20059;-53
2022/08/25 15:04:12;;;;;;;0.50;0.50;;;;;;;;;;5042473;28;20044;-53
2022/08/25 15:06:40;;;;;;;0.50;0.50;;;;;;;;;;5044696;28;20087;-54
2022/08/25 15:09:07;;;;;;;0.70;0.70;;;;;;;;;;5041865;28;20025;-54
2022/08/25 15:11:34;;;;;;;0.75;0.60;;;;;;;;;;5046086;28;20041;-53
2022/08/25 15:14:00;;;;;;;0.50;0.50;;;;;;;;;;5042327;28;20021;-53
2022/08/25 15:16:36;;;;;;;0.77;0.60;;;;;;;;;;5049530;28;20069;-54
2022/08/25 15:19:10;;;;;;;0.45;0.45;;;;;;;;;;5048846;28;20109;-54
2022/08/25 15:21:36;;;;;;;0.73;0.73;;;;;;;;;;5049385;28;20033;-54
2022/08/25 15:24:04;;;;;;;1.15;0.90;;;;;;;;;;5048698;28;20032;-52
2022/08/25 15:26:30;;;;;;;0.68;0.68;;;;;;;;;;5049522;28;20033;-51
2022/08/25 15:28:56;;;;;;;1.58;0.70;;;;;;;;;;5048592;28;20040;-54
2022/08/25 15:31:22;;;;;;;;;;;;;;;;;;5048782;28;20466;-54
2022/08/25 15:33:48;;;;;;;;;;;;;;;;;;5046323;28;19944;-54
2022/08/25 15:36:15;;;;;;;;;;;;;;;;;;5048341;28;20320;-51
2022/08/25 15:38:42;;;;;;;;;;;;;;;;;;5047611;28;20248;-55
2022/08/25 15:41:08;;;;;;;;;;;;;;;;;;5047987;28;19909;-54
2022/08/25 15:43:34;;;;;;;;;;;;;;;;;;5048092;28;20360;-55
2022/08/25 15:46:02;;;;;;;;;;;;;;;;;;5048875;28;20141;-53
2022/08/25 15:48:28;;;;;;;;;;;;;;;;;;5047703;28;19955;-55
2022/08/25 15:50:54;;;;;;;;;;;;;;;;;;5047912;28;19923;-53
2022/08/25 15:53:21;;;;;;;;;;;;;;;;;;5046983;28;19916;-55
2022/08/25 15:55:47;;;;;;;;;;;;;;;;;;5047785;28;19921;-54
2022/08/25 15:58:13;;;;;;;;;;;;;;;;;;5047030;28;20338;-55
2022/08/25 16:00:40;;;;;;;;;;;;;;;;;;5047261;28;20301;-54
2022/08/25 16:03:06;;;;;;;;;;;;;;;;;;5047079;28;20418;-55
2022/08/25 16:05:33;;;;;;;;;;;;;;;;;;5043252;28;19913;-56
2022/08/25 16:07:58;;;;;;;;;;;;;;;;;;5028675;28;19909;-54
2022/08/25 16:10:26;;;;;;;;;;;;;;;;;;5046886;28;19944;-55
2022/08/25 16:12:52;;;;;;;;;;;;;;;;;;5047183;28;19912;-54
2022/08/25 16:15:18;;;;;;;;;;;;;;;;;;5047918;28;19909;-55
2022/08/25 16:17:44;;;;;;;;;;;;;;;;;;5047907;28;19916;-54
2022/08/25 16:20:10;;;;;;;;;;;;;;;;;;5046958;28;19909;-55
2022/08/25 16:22:38;;;;;;;;;;;;;;;;;;5047205;28;19960;-55
2022/08/25 16:25:04;;;;;;;;;;;;;;;;;;5045538;28;20447;-55
2022/08/25 16:27:30;;;;;;;;;;;;;;;;;;5046169;28;19970;-56
2022/08/25 16:29:55;;;;;;;;;;;;;;;;;;5045735;28;19916;-56
2022/08/25 16:32:21;;;;;;;;;;;;;;;;;;5044697;28;19983;-55
2022/08/25 16:34:47;;;;;;;;;;;;;;;;;;5046747;28;20376;-56